Time;durP1;ratioP1;P1;durP2;ratioP2;P2;SDS_P1;SDS_P2;PMS_P1;PMS_P2;Temp;Humidity;BMP_temperature;BMP_pressure;BME280_temperature;BME280_humidity;BME280_pressure;Samples;Min_cycle;Max_cycle;Signal;HPM_P1;HPM_P2
2021/06/19 00:02:23;;;;;;;7.40;4.60;;;28.30;65.80;;;;;;6089511;23;20471;-85
2021/06/19 00:04:50;;;;;;;7.40;4.13;;;28.30;66.20;;;;;;6090068;23;20424;-84
2021/06/19 00:07:17;;;;;;;6.87;4.10;;;28.50;65.60;;;;;;6087455;23;20440;-87
2021/06/19 00:09:44;;;;;;;5.67;3.13;;;28.40;65.70;;;;;;6089011;23;20440;-84
2021/06/19 00:12:12;;;;;;;8.13;4.60;;;28.20;66.40;;;;;;6090951;23;20499;-84
2021/06/19 00:14:39;;;;;;;5.90;3.83;;;28.10;66.90;;;;;;6095154;23;20448;-83
2021/06/19 00:17:07;;;;;;;6.90;3.90;;;28.00;66.90;;;;;;6102419;23;20811;-85
2021/06/19 00:19:35;;;;;;;4.30;3.10;;;28.00;67.00;;;;;;6106282;23;20409;-86
2021/06/19 00:22:02;;;;;;;3.90;3.60;;;27.90;67.10;;;;;;6107941;23;20423;-84
2021/06/19 00:24:36;;;;;;;6.70;3.33;;;27.90;67.30;;;;;;6102808;23;20417;-84
2021/06/19 00:27:05;;;;;;;6.20;3.10;;;27.90;67.70;;;;;;6072085;23;20428;-85
2021/06/19 00:29:32;;;;;;;6.83;3.10;;;27.80;67.70;;;;;;6135873;23;20430;-84
2021/06/19 00:32:02;;;;;;;6.23;2.63;;;27.80;67.80;;;;;;6123906;23;20411;-84
2021/06/19 00:34:29;;;;;;;6.97;3.63;;;27.80;67.30;;;;;;6160569;23;20519;-85
2021/06/19 00:36:56;;;;;;;4.90;2.90;;;27.70;67.50;;;;;;6137569;23;20420;-81
2021/06/19 00:39:23;;;;;;;4.07;2.70;;;27.60;67.30;;;;;;6138611;23;20416;-82
2021/06/19 00:41:52;;;;;;;4.47;3.10;;;27.60;67.50;;;;;;6161289;23;20422;-82
2021/06/19 00:44:20;;;;;;;3.10;2.77;;;27.60;67.60;;;;;;6138791;23;20426;-86
2021/06/19 00:46:52;;;;;;;3.50;3.20;;;27.60;67.80;;;;;;6149229;23;20467;-86
2021/06/19 00:49:23;;;;;;;4.33;3.20;;;27.50;68.10;;;;;;6143734;23;20522;-84
2021/06/19 00:51:52;;;;;;;5.70;3.03;;;27.40;68.20;;;;;;6141557;23;20469;-84
2021/06/19 00:54:19;;;;;;;4.50;3.20;;;27.40;68.30;;;;;;6120169;23;20481;-86
2021/06/19 00:56:49;;;;;;;7.80;3.13;;;27.40;68.30;;;;;;6140888;23;20431;-86
2021/06/19 00:59:17;;;;;;;4.90;2.90;;;27.40;68.10;;;;;;6122128;23;20442;-85
2021/06/19 01:01:45;;;;;;;5.03;2.50;;;27.40;68.30;;;;;;6142081;23;20416;-84
2021/06/19 01:04:15;;;;;;;4.30;3.23;;;27.60;68.20;;;;;;6142487;23;20442;-84
2021/06/19 01:06:43;;;;;;;3.27;2.97;;;27.60;67.60;;;;;;6141901;23;20452;-84
2021/06/19 01:09:10;;;;;;;4.60;4.00;;;27.50;67.80;;;;;;6142662;23;20459;-84
2021/06/19 01:11:38;;;;;;;5.77;3.60;;;27.60;67.60;;;;;;6140797;23;20419;-85
2021/06/19 01:14:07;;;;;;;6.40;2.83;;;27.70;66.90;;;;;;6142777;23;20470;-83
2021/06/19 01:16:35;;;;;;;4.90;3.20;;;27.60;67.00;;;;;;6141811;23;20519;-83
2021/06/19 01:19:06;;;;;;;3.83;2.83;;;27.30;67.70;;;;;;6143097;23;20423;-86
2021/06/19 01:21:33;;;;;;;5.87;3.50;;;27.30;68.30;;;;;;6143155;23;20412;-85
2021/06/19 01:24:00;;;;;;;3.10;2.40;;;27.10;68.90;;;;;;6121685;23;20487;-85
2021/06/19 01:26:29;;;;;;;3.67;3.17;;;27.00;69.30;;;;;;6152556;23;20415;-87
2021/06/19 01:28:58;;;;;;;4.17;3.57;;;26.90;69.70;;;;;;6154656;23;20424;-85
2021/06/19 01:31:27;;;;;;;6.33;2.97;;;27.00;69.80;;;;;;6153668;23;20412;-83
2021/06/19 01:33:54;;;;;;;3.60;3.10;;;27.10;69.30;;;;;;6128278;23;20412;-85
2021/06/19 01:36:22;;;;;;;4.40;3.40;;;27.00;69.40;;;;;;6145562;23;20415;-86
2021/06/19 01:38:53;;;;;;;3.60;3.30;;;26.70;70.20;;;;;;6143040;23;20416;-86
2021/06/19 01:41:24;;;;;;;5.17;3.10;;;26.60;70.90;;;;;;6147837;23;20451;-85
2021/06/19 01:44:01;;;;;;;3.40;2.70;;;26.70;70.80;;;;;;6152330;23;20415;-86
2021/06/19 01:46:29;;;;;;;4.23;2.73;;;26.60;70.80;;;;;;6131586;23;20426;-85
2021/06/19 01:48:56;;;;;;;6.53;2.70;;;26.40;71.90;;;;;;6153144;23;20435;-86
2021/06/19 01:51:24;;;;;;;3.30;2.83;;;26.40;72.10;;;;;;6154863;23;20759;-82
2021/06/19 01:53:53;;;;;;;5.03;2.83;;;26.40;72.20;;;;;;6151835;23;20478;-83
2021/06/19 01:56:21;;;;;;;3.70;3.40;;;26.60;71.60;;;;;;6152091;23;20465;-84
2021/06/19 01:58:49;;;;;;;3.30;3.00;;;26.60;71.70;;;;;;6154574;23;20443;-87
2021/06/19 02:01:17;;;;;;;3.03;2.73;;;26.50;71.80;;;;;;6152503;23;20439;-85
2021/06/19 02:03:45;;;;;;;3.97;3.60;;;26.60;71.70;;;;;;6126380;23;20458;-86
2021/06/19 02:06:14;;;;;;;4.60;3.00;;;26.60;71.40;;;;;;6155304;23;20403;-86
2021/06/19 02:08:54;;;;;;;2.70;2.50;;;26.40;71.60;;;;;;6148341;23;20415;-85
2021/06/19 02:11:21;;;;;;;4.20;2.63;;;26.50;71.70;;;;;;6142233;23;20400;-85
2021/06/19 02:13:49;;;;;;;3.00;2.73;;;26.60;71.20;;;;;;6142376;23;20507;-84
2021/06/19 02:16:16;;;;;;;3.50;3.10;;;26.60;71.30;;;;;;6117374;23;20443;-84
2021/06/19 02:18:43;;;;;;;3.80;2.83;;;26.50;71.00;;;;;;6140570;23;20412;-84
2021/06/19 02:21:11;;;;;;;3.63;2.60;;;26.40;71.80;;;;;;6117294;23;20420;-83
2021/06/19 02:23:38;;;;;;;5.93;2.50;;;26.30;72.60;;;;;;6141769;23;20408;-85
2021/06/19 02:26:05;;;;;;;4.57;2.60;;;26.20;73.40;;;;;;6118624;23;20426;-83
2021/06/19 02:28:32;;;;;;;3.37;2.77;;;26.10;73.40;;;;;;6128845;23;20511;-84
2021/06/19 02:30:59;;;;;;;3.00;2.70;;;26.00;74.00;;;;;;6143782;23;20494;-85
2021/06/19 02:33:28;;;;;;;3.37;2.63;;;26.30;73.70;;;;;;6119943;23;20590;-82
2021/06/19 02:35:55;;;;;;;3.33;3.03;;;26.30;73.20;;;;;;6146441;23;20771;-84
2021/06/19 02:38:22;;;;;;;6.70;3.27;;;26.30;73.50;;;;;;6142233;23;20442;-87
2021/06/19 02:40:50;;;;;;;3.33;3.03;;;26.30;73.80;;;;;;6119091;23;20435;-84
2021/06/19 02:43:19;;;;;;;3.87;3.10;;;26.30;73.50;;;;;;6141601;23;20412;-85
2021/06/19 02:45:47;;;;;;;6.23;3.50;;;26.20;74.20;;;;;;6141307;23;20427;-86
2021/06/19 02:48:14;;;;;;;5.50;3.30;;;26.00;74.90;;;;;;6141303;23;20435;-84
2021/06/19 02:50:43;;;;;;;5.13;3.60;;;26.00;76.00;;;;;;6141337;23;20419;-84
2021/06/19 02:53:12;;;;;;;6.13;3.47;;;26.20;75.50;;;;;;6141480;23;20840;-84
2021/06/19 02:55:43;;;;;;;3.63;3.20;;;26.10;75.50;;;;;;6140996;23;20530;-83
2021/06/19 02:58:12;;;;;;;6.23;3.53;;;26.10;75.70;;;;;;6139845;23;20416;-85
2021/06/19 03:00:40;;;;;;;5.90;3.93;;;26.00;75.80;;;;;;6140861;23;20408;-85
2021/06/19 03:03:08;;;;;;;4.20;3.30;;;26.10;75.70;;;;;;6118162;23;20412;-83
2021/06/19 03:05:36;;;;;;;5.43;3.67;;;26.00;76.30;;;;;;6139655;23;20426;-86
2021/06/19 03:08:04;;;;;;;4.53;3.47;;;26.00;76.80;;;;;;6116692;23;20439;-85
2021/06/19 03:10:41;;;;;;;6.27;3.83;;;25.90;77.00;;;;;;6139503;23;20439;-85
2021/06/19 03:13:08;;;;;;;4.30;3.90;;;25.90;77.60;;;;;;6139342;23;21303;-85
2021/06/19 03:15:36;;;;;;;8.00;3.63;;;25.90;78.30;;;;;;6139086;23;20443;-84
2021/06/19 03:18:03;;;;;;;6.97;3.83;;;25.70;78.70;;;;;;6117276;23;20467;-85
2021/06/19 03:20:30;;;;;;;4.70;3.90;;;25.70;79.30;;;;;;6139219;23;20450;-85
2021/06/19 03:22:59;;;;;;;7.40;3.70;;;25.60;80.10;;;;;;6140392;23;20416;-84
2021/06/19 03:25:29;;;;;;;4.73;3.60;;;25.50;80.70;;;;;;6117630;23;20475;-85
2021/06/19 03:27:58;;;;;;;4.33;3.93;;;25.50;81.40;;;;;;6110999;23;20476;-85
2021/06/19 03:30:27;;;;;;;3.97;3.20;;;25.50;81.70;;;;;;6087719;23;20425;-86
2021/06/19 03:32:54;;;;;;;6.27;3.90;;;25.50;81.80;;;;;;6086056;23;20633;-85
2021/06/19 03:35:22;;;;;;;3.97;3.43;;;25.50;82.00;;;;;;6089613;23;20509;-88
2021/06/19 03:37:50;;;;;;;4.30;3.47;;;25.50;81.90;;;;;;6090728;23;20519;-84
2021/06/19 03:40:18;;;;;;;7.13;4.00;;;25.50;82.40;;;;;;6085687;23;20409;-86
2021/06/19 03:42:49;;;;;;;4.53;3.60;;;25.50;82.30;;;;;;6086680;23;20459;-85
2021/06/19 03:45:17;;;;;;;4.87;3.80;;;25.60;82.40;;;;;;6088334;23;20872;-84
2021/06/19 03:47:45;;;;;;;5.57;2.80;;;25.50;82.50;;;;;;6087647;23;20464;-85
2021/06/19 03:50:18;;;;;;;3.50;3.20;;;25.50;82.50;;;;;;6085980;23;20423;-84
2021/06/19 03:52:49;;;;;;;4.43;3.20;;;25.50;82.50;;;;;;6086110;23;20459;-85
2021/06/19 03:55:15;;;;;;;6.57;3.40;;;25.50;82.70;;;;;;6086197;23;20455;-85
2021/06/19 03:57:42;;;;;;;4.43;2.97;;;25.70;81.90;;;;;;6085854;23;20436;-84
2021/06/19 04:00:12;;;;;;;6.70;3.57;;;25.80;80.70;;;;;;6085446;23;20420;-85
2021/06/19 04:02:40;;;;;;;3.10;2.90;;;25.80;80.60;;;;;;6087323;23;20412;-87
2021/06/19 04:05:08;;;;;;;3.40;2.93;;;25.70;80.60;;;;;;6086376;23;20413;-85
2021/06/19 04:07:35;;;;;;;7.00;3.63;;;25.50;81.50;;;;;;6086712;23;20500;-85
2021/06/19 04:10:04;;;;;;;3.23;2.90;;;25.60;82.00;;;;;;6087451;23;20439;-84
2021/06/19 04:12:32;;;;;;;3.47;2.50;;;25.50;82.10;;;;;;6086937;23;20412;-84
2021/06/19 04:15:00;;;;;;;3.53;3.20;;;25.20;83.10;;;;;;6087827;23;20527;-85
2021/06/19 04:17:28;;;;;;;6.70;3.10;;;25.10;84.80;;;;;;6087390;23;20507;-83
2021/06/19 04:19:55;;;;;;;3.60;2.80;;;25.00;84.80;;;;;;6086252;23;20416;-84
2021/06/19 04:22:22;;;;;;;3.70;2.80;;;24.90;85.90;;;;;;6087289;23;20865;-82
2021/06/19 04:24:54;;;;;;;3.30;2.70;;;25.10;85.50;;;;;;6086782;23;20417;-86
2021/06/19 04:27:24;;;;;;;5.43;2.90;;;25.30;84.70;;;;;;6086950;23;20444;-83
2021/06/19 04:30:02;;;;;;;3.33;2.50;;;25.20;84.60;;;;;;6145826;23;20419;-85
2021/06/19 04:32:32;;;;;;;4.43;2.50;;;25.30;84.40;;;;;;6124498;23;20439;-84
2021/06/19 04:35:05;;;;;;;2.67;2.47;;;25.10;85.10;;;;;;6141151;23;20546;-83
2021/06/19 04:37:35;;;;;;;3.03;2.47;;;25.00;86.10;;;;;;6141151;23;21018;-84
2021/06/19 04:43:10;;;;;;;2.57;2.20;;;24.90;86.80;;;;;;6119045;23;20439;-83
2021/06/19 04:45:40;;;;;;;2.73;2.53;;;24.90;87.40;;;;;;6139781;23;20415;-85
2021/06/19 04:48:12;;;;;;;3.03;1.93;;;24.80;87.80;;;;;;6140561;23;20506;-82
2021/06/19 04:50:48;;;;;;;2.70;2.23;;;24.90;87.60;;;;;;6140790;23;20419;-83
2021/06/19 04:53:18;;;;;;;2.97;2.10;;;25.30;86.50;;;;;;6142006;23;20733;-83
2021/06/19 04:55:57;;;;;;;5.10;2.60;;;25.40;85.20;;;;;;6115762;23;20534;-85
2021/06/19 04:58:29;;;;;;;2.33;2.17;;;25.40;84.50;;;;;;6118342;23;20511;-86
2021/06/19 05:01:03;;;;;;;2.10;1.90;;;25.30;84.80;;;;;;6118416;23;20763;-83
2021/06/19 05:03:35;;;;;;;4.47;2.00;;;25.20;86.00;;;;;;6118662;23;20400;-83
2021/06/19 05:06:01;;;;;;;2.23;1.80;;;25.10;86.40;;;;;;6118105;23;20463;-84
2021/06/19 05:08:31;;;;;;;2.77;1.90;;;25.10;86.80;;;;;;6118246;23;20431;-84
2021/06/19 05:11:03;;;;;;;2.27;1.77;;;25.10;86.10;;;;;;6141445;23;20422;-86
2021/06/19 05:13:42;;;;;;;1.63;1.53;;;25.20;86.40;;;;;;6119165;23;21250;-85
2021/06/19 05:16:16;;;;;;;2.53;1.90;;;25.40;85.80;;;;;;6115539;23;20993;-83
2021/06/19 05:18:54;;;;;;;2.07;1.97;;;25.60;85.00;;;;;;6139724;23;20415;-84
2021/06/19 05:25:10;;;;;;;2.70;2.50;;;25.40;85.20;;;;;;6116948;23;20404;-83
2021/06/19 05:27:43;;;;;;;6.47;2.80;;;25.40;85.50;;;;;;6118110;23;20827;-84
2021/06/19 05:30:15;;;;;;;3.97;2.83;;;25.30;86.70;;;;;;6140838;23;20474;-85
2021/06/19 05:33:51;;;;;;;3.63;3.30;;;25.20;87.10;;;;;;6117016;23;20474;-84
2021/06/19 05:36:50;;;;;;;3.27;2.57;;;25.20;87.70;;;;;;6027287;23;20626;-84
2021/06/19 05:39:21;;;;;;;2.77;2.57;;;25.30;87.80;;;;;;6004546;23;20497;-84
2021/06/19 05:41:50;;;;;;;4.27;2.80;;;25.40;86.00;;;;;;6028582;23;20522;-86
2021/06/19 05:44:29;;;;;;;5.17;2.93;;;25.60;85.90;;;;;;6005459;23;20398;-84
2021/06/19 05:50:54;;;;;;;;;;;;;;;;;;;;;
2021/06/19 05:53:43;;;;;;;2.20;2.07;;;25.30;84.00;;;;;;6017272;23;20405;-84
2021/06/19 05:56:52;;;;;;;;;;;;;;;;;;;;;
2021/06/19 05:59:37;;;;;;;2.10;1.90;;;25.80;82.60;;;;;;6021554;23;20437;-83
2021/06/19 06:02:10;;;;;;;3.27;2.30;;;25.70;82.00;;;;;;6028797;23;20478;-82
2021/06/19 06:04:45;;;;;;;2.50;2.03;;;25.70;81.60;;;;;;6028190;23;20425;-84
2021/06/19 06:07:20;;;;;;;2.60;2.07;;;25.60;81.70;;;;;;6054975;23;20446;-85
2021/06/19 06:10:03;;;;;;;3.07;1.83;;;25.60;82.30;;;;;;6107250;23;20412;-86
2021/06/19 06:13:01;;;;;;;1.83;1.73;;;25.50;81.40;;;;;;6115797;23;20447;-85
2021/06/19 06:15:43;;;;;;;4.30;1.60;;;25.40;82.20;;;;;;6138544;23;20451;-85
2021/06/19 06:18:20;;;;;;;2.20;1.93;;;25.40;82.20;;;;;;6132491;23;20495;-83
2021/06/19 06:20:53;;;;;;;3.30;2.00;;;25.50;81.60;;;;;;6156028;23;20431;-84
2021/06/19 06:23:26;;;;;;;2.17;1.93;;;25.40;81.30;;;;;;6133094;23;20412;-83
2021/06/19 06:26:04;;;;;;;2.93;1.50;;;25.50;81.70;;;;;;6154554;23;20454;-83
2021/06/19 06:28:52;;;;;;;2.10;1.73;;;25.60;81.90;;;;;;6138815;23;20458;-83
2021/06/19 06:31:22;;;;;;;1.87;1.77;;;25.60;80.90;;;;;;6089828;23;20443;-85
2021/06/19 06:33:58;;;;;;;1.80;1.70;;;25.80;80.70;;;;;;6065820;23;20416;-83
2021/06/19 06:36:28;;;;;;;4.60;2.00;;;26.40;79.00;;;;;;6087594;23;20446;-85
2021/06/19 06:39:06;;;;;;;3.90;1.43;;;26.30;78.30;;;;;;6090230;23;20422;-84
2021/06/19 06:41:37;;;;;;;1.60;1.50;;;26.10;78.30;;;;;;6088089;23;20455;-85
2021/06/19 06:44:27;;;;;;;1.60;1.50;;;26.00;78.30;;;;;;6071824;23;20401;-86
2021/06/19 06:47:10;;;;;;;4.03;1.97;;;25.90;79.30;;;;;;6087890;23;20432;-83
2021/06/19 06:49:53;;;;;;;1.97;1.50;;;25.80;79.80;;;;;;6064823;23;20425;-84
2021/06/19 06:52:20;;;;;;;2.80;1.80;;;25.80;80.00;;;;;;6090206;23;20408;-84
2021/06/19 06:54:55;;;;;;;1.50;1.40;;;26.30;79.00;;;;;;6087441;23;20413;-83
2021/06/19 06:57:29;;;;;;;2.80;1.80;;;26.40;78.00;;;;;;6090547;23;20526;-84
2021/06/19 07:00:10;;;;;;;1.70;1.60;;;26.10;78.10;;;;;;6086994;23;20420;-84
2021/06/19 07:02:42;;;;;;;2.00;1.63;;;26.00;78.90;;;;;;6088673;23;20420;-84
2021/06/19 07:05:20;;;;;;;2.33;1.63;;;26.00;78.80;;;;;;6087078;23;20773;-85
2021/06/19 07:10:58;;;;;;;1.83;1.37;;;26.00;78.50;;;;;;6092253;23;20408;-84
2021/06/19 07:13:32;;;;;;;1.57;1.30;;;26.00;77.50;;;;;;6099769;23;21162;-84
2021/06/19 07:15:59;;;;;;;2.17;1.50;;;26.00;77.60;;;;;;6101073;23;20444;-82
2021/06/19 07:18:29;;;;;;;2.33;1.20;;;26.00;77.20;;;;;;6100785;23;20462;-83
2021/06/19 07:20:59;;;;;;;1.50;1.40;;;26.00;77.10;;;;;;6101752;23;20416;-83
2021/06/19 07:23:31;;;;;;;1.70;1.53;;;26.40;76.30;;;;;;6076990;23;20794;-85
2021/06/19 07:26:18;;;;;;;1.80;1.70;;;26.40;76.70;;;;;;6094287;23;20733;-84
2021/06/19 07:28:45;;;;;;;1.47;1.37;;;26.40;76.20;;;;;;6096056;23;20435;-83
2021/06/19 07:35:27;;;;;;;1.70;1.60;;;26.30;76.20;;;;;;5991001;23;20426;-85
2021/06/19 07:38:01;;;;;;;2.73;1.57;;;26.30;75.80;;;;;;6018129;23;20445;-85
2021/06/19 07:40:33;;;;;;;2.23;2.03;;;26.50;75.90;;;;;;6010586;23;20415;-84
2021/06/19 07:43:05;;;;;;;1.80;1.70;;;26.80;74.70;;;;;;6064328;23;20444;-84
2021/06/19 07:45:41;;;;;;;1.40;1.30;;;26.90;74.80;;;;;;6089778;23;20492;-84
2021/06/19 07:48:20;;;;;;;1.60;1.50;;;27.30;74.10;;;;;;6087901;23;20432;-84
2021/06/19 07:50:53;;;;;;;1.53;1.37;;;27.70;72.00;;;;;;6091345;23;20391;-85
2021/06/19 07:56:38;;;;;;;1.37;1.27;;;27.20;72.70;;;;;;6082763;23;20507;-85
2021/06/19 07:59:27;;;;;;;1.60;1.50;;;27.40;73.30;;;;;;6087529;23;20731;-84
2021/06/19 08:02:18;;;;;;;1.90;1.57;;;27.70;71.90;;;;;;6091152;23;20423;-85
2021/06/19 08:05:24;;;;;;;2.90;2.50;;;27.80;70.90;;;;;;6091569;23;20433;-84
2021/06/19 08:08:29;;;;;;;1.77;1.40;;;27.70;71.30;;;;;;6081152;23;20416;-84
2021/06/19 08:11:18;;;;;;;2.93;1.40;;;27.80;71.60;;;;;;6091810;23;21023;-85
2021/06/19 08:14:32;;;;;;;1.87;1.40;;;28.00;70.50;;;;;;6104202;23;20432;-85
2021/06/19 08:18:08;;;;;;;1.90;1.40;;;27.70;70.30;;;;;;6107772;23;20753;-86
2021/06/19 08:21:11;;;;;;;2.20;1.20;;;27.60;71.40;;;;;;6094994;23;20432;-85
2021/06/19 08:24:09;;;;;;;1.60;1.30;;;27.70;71.00;;;;;;6103130;23;20408;-86
2021/06/19 08:30:28;;;;;;;5.20;1.50;;;28.30;68.20;;;;;;6049518;23;20426;-83
2021/06/19 08:33:44;;;;;;;1.77;1.47;;;28.00;69.20;;;;;;6144005;23;20411;-85
2021/06/19 08:36:25;;;;;;;4.80;1.80;;;28.30;68.30;;;;;;6157338;23;20453;-84
2021/06/19 08:39:00;;;;;;;1.90;1.50;;;28.50;67.00;;;;;;6144410;23;20499;-85
2021/06/19 08:41:38;;;;;;;1.53;1.43;;;28.50;67.50;;;;;;6121307;23;20871;-85
2021/06/19 08:44:27;;;;;;;3.23;2.30;;;28.90;67.00;;;;;;6101919;23;20422;-82
2021/06/19 08:47:35;;;;;;;2.37;1.63;;;28.80;66.20;;;;;;6142518;23;20442;-84
2021/06/19 08:50:20;;;;;;;1.50;1.30;;;29.20;64.60;;;;;;6122074;23;20463;-85
2021/06/19 08:52:56;;;;;;;2.07;1.60;;;29.10;63.80;;;;;;6121218;23;20941;-85
2021/06/19 08:55:49;;;;;;;3.73;1.27;;;29.40;63.10;;;;;;6121112;23;20431;-86
2021/06/19 08:58:31;;;;;;;4.40;1.73;;;29.10;62.80;;;;;;6136640;23;20514;-85
2021/06/19 09:01:08;;;;;;;1.13;1.03;;;29.20;64.80;;;;;;6121131;23;20458;-85
2021/06/19 09:03:49;;;;;;;1.30;1.13;;;29.80;62.10;;;;;;6146053;23;20415;-86
2021/06/19 09:06:40;;;;;;;1.37;1.27;;;30.70;58.70;;;;;;6103140;23;20408;-86
2021/06/19 09:09:32;;;;;;;2.00;1.23;;;30.50;58.90;;;;;;6145409;23;20420;-83
2021/06/19 09:12:11;;;;;;;1.57;1.07;;;30.80;57.90;;;;;;6129910;23;20492;-85
2021/06/19 09:14:44;;;;;;;3.10;1.20;;;31.10;56.30;;;;;;6141942;23;20426;-81
2021/06/19 09:17:25;;;;;;;1.10;0.97;;;31.70;53.30;;;;;;6120774;23;20457;-85
2021/06/19 09:20:46;;;;;;;;;;;;;;;;;;;;;
2021/06/19 09:23:43;;;;;;;1.70;0.70;;;31.00;53.40;;;;;;6120679;23;20415;-84
2021/06/19 09:26:44;;;;;;;1.27;0.70;;;31.10;53.00;;;;;;6142044;23;20433;-84
2021/06/19 09:29:44;;;;;;;1.93;1.00;;;30.80;53.80;;;;;;6090471;23;20906;-82
2021/06/19 09:32:42;;;;;;;2.43;1.00;;;32.10;51.70;;;;;;6092584;23;20479;-84
2021/06/19 09:35:40;;;;;;;1.20;0.80;;;32.00;51.30;;;;;;6090118;23;20542;-82
2021/06/19 09:39:16;;;;;;;4.00;1.73;;;32.00;51.40;;;;;;6067517;23;20484;-82
2021/06/19 09:42:10;;;;;;;2.03;1.00;;;32.30;50.50;;;;;;6024904;23;20424;-84
2021/06/19 09:44:57;;;;;;;1.30;1.10;;;32.90;50.00;;;;;;6091310;23;20492;-85
2021/06/19 09:47:37;;;;;;;3.00;1.10;;;33.30;49.20;;;;;;6091036;23;20440;-84
2021/06/19 09:50:37;;;;;;;1.30;1.20;;;33.10;48.40;;;;;;6070472;23;20409;-85
2021/06/19 09:53:40;;;;;;;1.57;0.93;;;33.30;48.00;;;;;;6064547;23;20409;-85
2021/06/19 09:56:26;;;;;;;3.40;1.20;;;33.80;46.90;;;;;;6101863;23;20412;-84
2021/06/19 09:59:04;;;;;;;2.13;1.27;;;34.20;46.20;;;;;;6099975;23;20880;-84
2021/06/19 10:01:43;;;;;;;4.87;1.10;;;34.60;44.90;;;;;;6102285;23;20444;-85
2021/06/19 10:04:15;;;;;;;1.27;1.17;;;34.30;45.60;;;;;;6109280;23;20800;-85
2021/06/19 10:06:58;;;;;;;1.40;1.30;;;34.80;44.50;;;;;;6109711;23;20503;-85
2021/06/19 10:09:32;;;;;;;4.33;1.50;;;35.00;43.90;;;;;;6112002;23;20381;-84
2021/06/19 10:12:50;;;;;;;1.67;1.57;;;35.00;43.40;;;;;;6114080;23;20411;-83
2021/06/19 10:16:01;;;;;;;1.43;1.33;;;35.60;42.30;;;;;;6027577;23;20399;-86
2021/06/19 10:22:18;;;;;;;;;;;;;;;;;;;;;
2021/06/19 10:25:09;;;;;;;1.50;1.30;;;35.10;43.00;;;;;;6096487;23;20416;-88
2021/06/19 10:28:21;;;;;;;1.40;1.30;;;35.70;42.20;;;;;;6110045;23;20416;-87
2021/06/19 10:31:05;;;;;;;1.67;1.57;;;36.00;41.50;;;;;;6100025;23;20420;-86
2021/06/19 10:34:08;;;;;;;1.33;1.23;;;36.00;41.60;;;;;;6108508;23;20405;-87
2021/06/19 10:36:46;;;;;;;1.20;1.20;;;35.80;42.20;;;;;;6046388;23;20448;-86
2021/06/19 10:39:43;;;;;;;1.70;1.60;;;36.20;41.50;;;;;;6107130;23;20405;-86
2021/06/19 10:42:37;;;;;;;3.20;1.50;;;35.80;41.60;;;;;;6109550;23;20385;-85
2021/06/19 10:49:44;;;;;;;2.50;1.63;;;35.80;41.50;;;;;;6106501;23;20413;-85
2021/06/19 10:52:34;;;;;;;1.63;1.53;;;35.30;42.50;;;;;;6042876;23;20488;-85
2021/06/19 10:55:10;;;;;;;1.33;1.23;;;36.10;42.10;;;;;;6107522;23;20381;-85
2021/06/19 10:58:00;;;;;;;1.57;1.47;;;36.40;41.40;;;;;;6082270;23;20445;-84
2021/06/19 11:01:30;;;;;;;1.50;1.40;;;35.70;41.80;;;;;;6102083;23;20514;-85
2021/06/19 11:04:31;;;;;;;1.87;1.67;;;35.00;42.70;;;;;;6017941;23;20506;-85
2021/06/19 11:07:25;;;;;;;1.63;1.40;;;35.90;41.60;;;;;;6079040;23;20421;-84
2021/06/19 11:09:59;;;;;;;1.63;1.53;;;35.80;42.20;;;;;;6074965;23;20436;-85
2021/06/19 11:16:08;;;;;;;1.40;1.30;;;35.90;41.30;;;;;;6075712;23;20419;-84
2021/06/19 11:19:02;;;;;;;2.63;2.03;;;35.10;42.50;;;;;;6089621;23;20538;-86
2021/06/19 11:25:12;;;;;;;1.63;1.53;;;35.70;41.70;;;;;;6090345;23;20447;-87
2021/06/19 11:28:07;;;;;;;1.43;1.33;;;35.10;42.20;;;;;;6019081;23;20503;-84
2021/06/19 11:31:01;;;;;;;1.93;1.73;;;35.20;42.50;;;;;;6092056;23;20490;-86
2021/06/19 11:33:59;;;;;;;2.00;1.43;;;35.10;42.60;;;;;;6118112;23;20933;-86
2021/06/19 11:39:54;;;;;;;3.83;1.63;;;34.80;42.70;;;;;;6120170;23;20403;-85
2021/06/19 11:42:49;;;;;;;3.60;1.57;;;35.10;42.70;;;;;;6114857;23;20455;-84
2021/06/19 11:45:37;;;;;;;1.50;1.40;;;35.40;42.80;;;;;;6036834;23;20405;-85
2021/06/19 11:48:18;;;;;;;1.70;1.60;;;35.60;41.40;;;;;;6057882;23;20445;-85
2021/06/19 11:50:52;;;;;;;2.40;1.70;;;36.10;41.10;;;;;;6057533;23;21278;-84
2021/06/19 11:53:38;;;;;;;1.67;1.47;;;35.80;41.40;;;;;;6034506;23;20809;-85
2021/06/19 11:56:58;;;;;;;1.93;1.70;;;36.00;41.50;;;;;;5923694;24;20492;-84
2021/06/19 12:03:53;;;;;;;;;;;;;;;;;;;;;
2021/06/19 12:06:54;;;;;;;2.23;1.60;;;35.50;42.20;;;;;;5943584;24;20438;-85
2021/06/19 12:09:48;;;;;;;1.93;1.83;;;35.90;41.60;;;;;;5948423;24;20417;-85
2021/06/19 12:24:47;;;;;;;;;;;;;;;;;;;;;
2021/06/19 12:30:05;;;;;;;1.80;1.70;;;34.60;43.70;;;;;;6171175;22;20462;-85
2021/06/19 12:32:41;;;;;;;170.90;107.90;;;35.10;42.50;;;;;;6180513;23;20801;-84
2021/06/19 12:35:19;;;;;;;2.40;1.60;;;35.00;42.10;;;;;;6188956;23;20393;-85
2021/06/19 12:38:27;;;;;;;1.93;1.83;;;34.40;43.20;;;;;;6180171;23;20465;-83
2021/06/19 12:41:51;;;;;;;;;;;;;;;;;;;;;
2021/06/19 12:49:01;;;;;;;2.10;2.00;;;33.60;44.60;;;;;;6067333;23;20874;-84
2021/06/19 12:52:24;;;;;;;1.93;1.80;;;33.70;45.20;;;;;;6183302;23;20420;-85
2021/06/19 12:55:21;;;;;;;3.57;2.50;;;34.10;44.90;;;;;;6170408;23;21419;-84
2021/06/19 13:05:56;;;;;;;4.00;2.47;;;33.80;45.00;;;;;;6176210;23;20508;-85
2021/06/19 13:11:46;;;;;;;2.50;1.93;;;33.80;44.60;;;;;;6177092;23;20442;-85
2021/06/19 13:21:24;;;;;;;2.30;2.10;;;34.30;43.30;;;;;;6179224;23;20469;-84
2021/06/19 13:24:26;;;;;;;3.43;2.20;;;34.40;43.10;;;;;;6159599;23;20424;-83
2021/06/19 13:27:29;;;;;;;2.33;2.20;;;34.40;43.20;;;;;;6173442;23;20508;-82
2021/06/19 13:30:12;;;;;;;2.30;2.20;;;34.50;43.00;;;;;;6142581;23;20410;-84
2021/06/19 13:33:00;;;;;;;2.17;1.90;;;33.90;43.90;;;;;;6174214;23;20410;-83
2021/06/19 13:35:53;;;;;;;3.20;2.23;;;33.60;44.30;;;;;;6172986;23;20394;-83
2021/06/19 13:42:58;;;;;;;2.57;2.43;;;33.80;44.20;;;;;;5998042;23;20390;-83
2021/06/19 13:46:22;;;;;;;2.20;2.10;;;33.60;44.50;;;;;;5999854;23;20895;-83
2021/06/19 13:49:09;;;;;;;2.43;2.23;;;33.40;44.00;;;;;;6008609;23;20411;-82
2021/06/19 13:52:37;;;;;;;2.57;1.80;;;33.30;44.60;;;;;;6019605;23;20409;-84
2021/06/19 13:55:18;;;;;;;2.20;1.90;;;33.20;45.20;;;;;;6081224;23;20710;-83
2021/06/19 13:57:48;;;;;;;2.20;1.93;;;33.40;45.00;;;;;;6101114;23;20451;-84
2021/06/19 14:00:27;;;;;;;4.40;2.10;;;33.60;44.40;;;;;;6177734;23;20406;-84
2021/06/19 14:03:46;;;;;;;1.83;1.73;;;33.90;44.30;;;;;;6173562;23;20413;-84
2021/06/19 14:06:16;;;;;;;2.30;2.00;;;33.90;44.00;;;;;;6174009;23;20787;-83
2021/06/19 14:09:07;;;;;;;2.47;2.30;;;33.60;44.40;;;;;;6149189;23;21185;-82
2021/06/19 14:11:52;;;;;;;3.13;2.17;;;33.50;44.30;;;;;;6172001;23;20525;-84
2021/06/19 14:14:26;;;;;;;2.43;2.00;;;33.20;44.80;;;;;;6149216;23;20421;-84
2021/06/19 14:16:53;;;;;;;2.00;1.80;;;33.30;44.90;;;;;;6171821;23;20476;-83
2021/06/19 14:19:34;;;;;;;2.23;2.03;;;33.10;45.00;;;;;;6147806;23;20810;-83
2021/06/19 14:22:29;;;;;;;2.30;2.20;;;33.20;45.50;;;;;;6177116;23;20453;-82
2021/06/19 14:25:28;;;;;;;1.83;1.73;;;33.70;44.90;;;;;;6170226;23;20432;-83
2021/06/19 14:28:23;;;;;;;2.90;2.10;;;33.80;44.00;;;;;;6112977;23;20949;-86
2021/06/19 14:31:09;;;;;;;2.27;1.90;;;33.70;44.70;;;;;;6135204;23;20413;-84
2021/06/19 14:33:58;;;;;;;2.20;2.00;;;33.90;44.80;;;;;;6178668;23;20445;-84
2021/06/19 14:36:44;;;;;;;4.57;2.00;;;33.80;44.20;;;;;;6177051;23;20988;-83
2021/06/19 14:39:22;;;;;;;2.60;2.20;;;33.80;45.20;;;;;;6176659;23;20417;-84
2021/06/19 14:42:05;;;;;;;5.67;2.60;;;33.60;45.80;;;;;;6176894;23;20444;-84
2021/06/19 14:48:30;;;;;;;2.30;2.20;;;33.30;46.50;;;;;;6113699;23;21303;-82
2021/06/19 14:51:05;;;;;;;3.37;1.93;;;33.40;46.20;;;;;;6115485;23;20399;-83
2021/06/19 14:53:39;;;;;;;2.23;2.10;;;33.60;46.70;;;;;;6115617;23;20430;-84
2021/06/19 14:56:18;;;;;;;2.67;2.47;;;34.00;46.70;;;;;;6114400;23;20469;-84
2021/06/19 14:59:23;;;;;;;2.53;2.07;;;34.00;46.70;;;;;;6093202;23;21422;-82
2021/06/19 15:02:11;;;;;;;4.53;2.83;;;33.90;46.50;;;;;;6114877;23;20412;-85
2021/06/19 15:04:50;;;;;;;9.43;5.80;;;33.70;46.90;;;;;;6118632;23;20419;-83
2021/06/19 15:07:31;;;;;;;10.00;6.47;;;33.70;47.60;;;;;;6119267;23;20451;-83
2021/06/19 15:10:22;;;;;;;2.83;2.60;;;33.50;47.80;;;;;;6092777;23;20427;-84
2021/06/19 15:12:58;;;;;;;5.70;4.13;;;33.60;48.30;;;;;;6094840;23;20407;-84
2021/06/19 15:18:59;;;;;;;3.40;2.47;;;33.40;49.00;;;;;;5982739;23;20501;-84
2021/06/19 15:21:31;;;;;;;2.17;2.07;;;33.40;48.30;;;;;;6096301;23;20482;-85
2021/06/19 15:24:05;;;;;;;2.73;2.50;;;33.50;47.70;;;;;;6078388;23;20447;-84
2021/06/19 15:26:55;;;;;;;3.07;2.80;;;33.60;47.50;;;;;;6094214;23;20416;-82
2021/06/19 15:29:38;;;;;;;2.73;2.53;;;33.60;47.20;;;;;;6060826;23;20524;-83
2021/06/19 15:32:57;;;;;;;3.20;2.10;;;33.60;46.90;;;;;;6063052;23;20408;-83
2021/06/19 15:36:42;;;;;;;;;;;;;;;;;;;;;
2021/06/19 15:39:40;;;;;;;3.10;2.80;;;34.10;46.70;;;;;;5918278;24;20442;-84